Terminal Aerodrome Forecast
Issued by NWS

Home | Current Version | Previous Version | Text Only | Print | Product List | Glossary On
Versions: 1 2 3 4 5 6 7 8 9 10 11 12 13 14 15 16 17 18 19 20 21 22 23 24 25 26 27 28 29 30 31 32 33 34 35 36 37
000
FTUS44 KFWD 231317 AAA
TAFDAL
TAF AMD
KDAL 231317Z 2313/2412 14007KT 3SM -RA BR VCSH OVC006
      TEMPO 2314/2316 6SM BR OVC008
     FM231600 15012KT P6SM VCSH OVC015
     FM231800 16015KT P6SM VCTS BKN025 OVC050CB
      TEMPO 2319/2322 4SM -TSRA BR SCT030 OVC040CB
     FM240400 13010KT 5SM -RA VCTS OVC009CB
      TEMPO 2405/2409 2SM +TSRA BR OVC006CB=

USA.gov is the U.S. government's official web portal to all federal, state and local government web resources and services.